Time;durP1;ratioP1;P1;durP2;ratioP2;P2;SDS_P1;SDS_P2;PMS_P1;PMS_P2;Temp;Humidity;BMP_temperature;BMP_pressure;BME280_temperature;BME280_humidity;BME280_pressure;Samples;Min_cycle;Max_cycle;Signal;HPM_P1;HPM_P2
2024/01/01 00:00:24;;;;;;;1.60;1.00;;;21.40;80.70;;;;;;5004207;28;20477;-54
2024/01/01 00:02:52;;;;;;;1.70;1.20;;;21.40;80.80;;;;;;5013023;28;20909;-55
2024/01/01 00:05:19;;;;;;;2.37;1.10;;;21.40;80.80;;;;;;5007640;28;20942;-55
2024/01/01 00:07:50;;;;;;;1.37;1.00;;;21.40;80.80;;;;;;5003196;28;20493;-55
2024/01/01 00:10:19;;;;;;;1.00;0.80;;;21.40;80.80;;;;;;4996537;28;21009;-54
2024/01/01 00:12:52;;;;;;;2.10;1.00;;;21.40;80.90;;;;;;5000489;28;20494;-56
2024/01/01 00:15:23;;;;;;;1.90;1.00;;;21.30;80.80;;;;;;4997727;28;20461;-56
2024/01/01 00:17:50;;;;;;;1.43;1.00;;;21.30;80.90;;;;;;5007327;28;20473;-55
2024/01/01 00:20:18;;;;;;;1.47;1.00;;;21.30;80.80;;;;;;5006488;28;20466;-58
2024/01/01 00:22:49;;;;;;;1.30;1.10;;;21.30;80.80;;;;;;5007923;28;21012;-55
2024/01/01 00:25:16;;;;;;;2.07;1.13;;;21.30;80.80;;;;;;5010630;28;20459;-54
2024/01/01 00:27:49;;;;;;;1.70;1.30;;;21.30;81.00;;;;;;5007871;28;21080;-55
2024/01/01 00:30:17;;;;;;;1.40;1.02;;;21.30;81.00;;;;;;5004476;28;20565;-52
2024/01/01 00:32:47;;;;;;;2.05;0.95;;;21.30;80.80;;;;;;5008960;28;20891;-57
2024/01/01 00:35:19;;;;;;;1.90;1.08;;;21.30;80.90;;;;;;5001141;28;20199;-52
2024/01/01 00:37:50;;;;;;;1.35;0.90;;;21.30;81.00;;;;;;5006154;28;20195;-55
2024/01/01 00:40:17;;;;;;;1.63;1.15;;;21.20;81.00;;;;;;5005224;28;20203;-57
2024/01/01 00:42:47;;;;;;;1.43;1.00;;;21.30;81.00;;;;;;5006685;28;20536;-54
2024/01/01 00:45:16;;;;;;;1.37;1.10;;;21.20;81.00;;;;;;5010945;28;20464;-53
2024/01/01 00:47:44;;;;;;;1.20;0.90;;;21.20;81.00;;;;;;5002659;28;20465;-55
2024/01/01 00:50:11;;;;;;;2.42;1.05;;;21.20;80.90;;;;;;5007279;28;20584;-52
2024/01/01 00:52:44;;;;;;;1.60;1.00;;;21.20;81.00;;;;;;5002628;28;20191;-53
2024/01/01 00:55:17;;;;;;;1.20;0.90;;;21.20;81.00;;;;;;5003582;28;20457;-54
2024/01/01 00:57:44;;;;;;;1.87;1.20;;;21.20;81.30;;;;;;5009895;28;21034;-54
2024/01/01 01:00:12;;;;;;;2.10;1.10;;;21.10;81.10;;;;;;4992253;28;20453;-59
2024/01/01 01:02:39;;;;;;;1.30;0.90;;;21.20;81.30;;;;;;5009154;28;20453;-54
2024/01/01 01:05:07;;;;;;;1.90;1.20;;;21.20;81.10;;;;;;5007556;28;20203;-53
2024/01/01 01:07:36;;;;;;;6.47;2.00;;;21.10;81.30;;;;;;5004369;28;20454;-51
2024/01/01 01:10:04;;;;;;;1.73;1.30;;;21.10;81.20;;;;;;5008088;28;20205;-55
2024/01/01 01:12:32;;;;;;;1.33;1.00;;;21.10;81.20;;;;;;5010289;28;20893;-57
2024/01/01 01:15:02;;;;;;;1.23;1.13;;;21.10;81.20;;;;;;5004053;28;20462;-58
2024/01/01 01:17:39;;;;;;;1.20;1.10;;;21.10;81.20;;;;;;5005970;28;20596;-57
2024/01/01 01:20:13;;;;;;;1.80;1.30;;;21.10;81.20;;;;;;5000257;28;20249;-58
2024/01/01 01:22:43;;;;;;;1.40;1.13;;;21.10;81.20;;;;;;5009687;28;20196;-53
2024/01/01 01:25:13;;;;;;;1.50;0.98;;;21.10;81.30;;;;;;5000262;28;20195;-59
2024/01/01 01:27:42;;;;;;;1.50;1.20;;;21.10;81.30;;;;;;5008898;28;20791;-53
2024/01/01 01:30:17;;;;;;;3.00;1.40;;;21.10;81.20;;;;;;5005628;28;28426;-57
2024/01/01 01:32:49;;;;;;;1.43;1.10;;;21.10;81.20;;;;;;5002751;28;20479;-57
2024/01/01 01:35:17;;;;;;;2.47;1.15;;;21.10;81.20;;;;;;4998802;28;20597;-52
2024/01/01 01:37:46;;;;;;;1.80;0.90;;;21.10;81.10;;;;;;5008474;28;20210;-54
2024/01/01 01:40:15;;;;;;;1.35;1.20;;;21.00;81.10;;;;;;5007204;28;21313;-55
2024/01/01 01:42:48;;;;;;;1.30;1.00;;;21.00;81.00;;;;;;5009301;28;20195;-59
2024/01/01 01:45:18;;;;;;;1.80;1.30;;;21.00;81.10;;;;;;5009426;28;20454;-56
2024/01/01 01:47:51;;;;;;;1.70;1.23;;;21.00;81.00;;;;;;5005424;28;20216;-54
2024/01/01 01:50:21;;;;;;;1.30;1.20;;;21.00;81.10;;;;;;5008371;28;20806;-52
2024/01/01 01:52:50;;;;;;;1.40;1.10;;;21.00;81.20;;;;;;5006013;28;20195;-56
2024/01/01 01:55:22;;;;;;;1.50;1.30;;;21.00;81.10;;;;;;4998593;28;20535;-56
2024/01/01 01:57:53;;;;;;;1.75;1.20;;;21.00;81.20;;;;;;5004813;28;20200;-58
2024/01/01 02:00:25;;;;;;;1.52;1.42;;;20.90;81.00;;;;;;5000762;28;20192;-56
2024/01/01 02:02:53;;;;;;;1.98;1.52;;;20.90;82.10;;;;;;5007243;28;20207;-54
2024/01/01 02:05:21;;;;;;;1.50;1.15;;;20.90;81.10;;;;;;5006208;28;20203;-53
2024/01/01 02:07:48;;;;;;;1.20;1.10;;;20.90;80.90;;;;;;5001345;28;20196;-59
2024/01/01 02:10:15;;;;;;;1.30;1.10;;;20.90;81.10;;;;;;5008656;28;20197;-56
2024/01/01 02:12:44;;;;;;;1.50;1.20;;;20.90;81.00;;;;;;5002140;28;21425;-57
2024/01/01 02:15:15;;;;;;;1.75;1.08;;;20.90;81.00;;;;;;5001680;28;20462;-58
2024/01/01 02:17:42;;;;;;;2.42;1.63;;;20.90;80.90;;;;;;5005809;28;20191;-56
2024/01/01 02:20:09;;;;;;;2.13;1.20;;;20.90;81.00;;;;;;5005336;28;20668;-55
2024/01/01 02:22:39;;;;;;;1.30;1.20;;;20.90;80.90;;;;;;5006243;28;20453;-57
2024/01/01 02:25:12;;;;;;;1.42;1.10;;;20.90;81.10;;;;;;5005709;28;20660;-55
2024/01/01 02:27:43;;;;;;;1.80;1.20;;;20.90;81.10;;;;;;5005609;28;20200;-59
2024/01/01 02:30:17;;;;;;;1.60;1.50;;;20.90;81.20;;;;;;5001990;28;20461;-54
2024/01/01 02:32:43;;;;;;;1.80;1.70;;;20.90;81.20;;;;;;5005870;28;20276;-59
2024/01/01 02:35:10;;;;;;;1.70;1.35;;;20.80;80.90;;;;;;5000977;28;20960;-56
2024/01/01 02:37:38;;;;;;;2.22;1.40;;;20.90;81.00;;;;;;5004205;28;20193;-54
2024/01/01 02:40:08;;;;;;;1.48;1.30;;;20.90;81.30;;;;;;5004980;28;20281;-51
2024/01/01 02:42:39;;;;;;;1.50;1.30;;;20.80;81.20;;;;;;5000419;28;20250;-57
2024/01/01 02:45:10;;;;;;;1.30;1.20;;;20.80;81.10;;;;;;5000513;28;20193;-55
2024/01/01 02:47:37;;;;;;;1.63;1.52;;;20.80;81.20;;;;;;4995189;28;20195;-60
2024/01/01 02:50:05;;;;;;;1.75;1.65;;;20.80;81.00;;;;;;5006648;28;20314;-53
2024/01/01 02:52:34;;;;;;;1.38;1.17;;;20.80;81.10;;;;;;5004806;28;20223;-56
2024/01/01 02:55:01;;;;;;;1.98;1.45;;;20.80;81.10;;;;;;5000470;28;20204;-53
2024/01/01 02:57:31;;;;;;;1.60;1.20;;;20.80;81.20;;;;;;5006289;28;20723;-57
2024/01/01 03:00:01;;;;;;;1.60;1.50;;;20.80;81.10;;;;;;5003769;28;20202;-58
2024/01/01 03:02:29;;;;;;;1.60;1.50;;;20.80;81.10;;;;;;4998716;28;20199;-56
2024/01/01 03:04:57;;;;;;;1.63;1.20;;;20.80;81.20;;;;;;5000269;28;20196;-54
2024/01/01 03:07:28;;;;;;;2.30;1.35;;;20.80;81.20;;;;;;5003098;28;20464;-54
2024/01/01 03:09:55;;;;;;;1.50;1.33;;;20.70;81.10;;;;;;5000220;28;20583;-55
2024/01/01 03:12:24;;;;;;;1.88;1.13;;;20.70;81.00;;;;;;5005414;28;21020;-53
2024/01/01 03:14:58;;;;;;;2.60;1.50;;;20.70;81.10;;;;;;4992242;28;20192;-55
2024/01/01 03:17:26;;;;;;;1.92;1.38;;;20.70;81.20;;;;;;5005474;28;20195;-57
2024/01/01 03:19:53;;;;;;;1.77;1.25;;;20.70;81.00;;;;;;5005220;28;20377;-55
2024/01/01 03:22:23;;;;;;;2.17;1.42;;;20.70;81.20;;;;;;5004795;28;20203;-57
2024/01/01 03:24:49;;;;;;;1.50;1.20;;;20.70;81.10;;;;;;5003813;28;20203;-54
2024/01/01 03:27:18;;;;;;;1.90;1.70;;;20.70;81.20;;;;;;5007874;28;20188;-54
2024/01/01 03:29:47;;;;;;;2.05;1.55;;;20.70;81.20;;;;;;5002797;28;20329;-54
2024/01/01 03:32:15;;;;;;;1.42;1.27;;;20.70;81.00;;;;;;5005931;28;20217;-55
2024/01/01 03:34:46;;;;;;;1.80;1.30;;;20.60;80.90;;;;;;5001089;28;20199;-59
2024/01/01 03:37:15;;;;;;;2.70;1.37;;;20.70;80.90;;;;;;5002786;28;20659;-57
2024/01/01 03:39:43;;;;;;;1.80;1.38;;;20.70;81.10;;;;;;5004240;28;20462;-56
2024/01/01 03:42:12;;;;;;;2.00;1.45;;;20.60;81.00;;;;;;5003805;28;20195;-59
2024/01/01 03:44:39;;;;;;;1.95;1.50;;;20.70;81.10;;;;;;5006305;28;20200;-56
2024/01/01 03:47:06;;;;;;;2.45;1.60;;;20.70;81.10;;;;;;5003555;28;20567;-56
2024/01/01 03:49:39;;;;;;;1.60;1.50;;;20.60;81.20;;;;;;5000707;28;20203;-59
2024/01/01 03:52:06;;;;;;;2.85;1.50;;;20.60;81.20;;;;;;5001954;28;20223;-58
2024/01/01 03:54:38;;;;;;;1.65;1.35;;;20.60;81.00;;;;;;5005167;28;20207;-57
2024/01/01 03:57:10;;;;;;;1.90;1.60;;;20.60;81.00;;;;;;5003621;28;20253;-54
2024/01/01 03:59:41;;;;;;;1.52;1.27;;;20.60;81.00;;;;;;5006372;28;20197;-57
2024/01/01 04:02:09;;;;;;;1.77;1.63;;;20.60;81.00;;;;;;5005416;28;20294;-53
2024/01/01 04:04:38;;;;;;;2.50;1.85;;;20.60;81.20;;;;;;5008606;28;20214;-59
2024/01/01 04:07:08;;;;;;;1.60;1.40;;;20.60;81.00;;;;;;5001411;28;20690;-60
2024/01/01 04:09:39;;;;;;;1.40;1.30;;;20.60;81.10;;;;;;5000966;28;20470;-54
2024/01/01 04:12:09;;;;;;;1.88;1.63;;;20.60;81.00;;;;;;5006177;28;20821;-55
2024/01/01 04:14:39;;;;;;;2.10;1.73;;;20.60;80.90;;;;;;5005138;28;20210;-57
2024/01/01 04:17:10;;;;;;;1.50;1.40;;;20.60;81.00;;;;;;5002235;28;20204;-58
2024/01/01 04:19:49;;;;;;;1.98;1.45;;;20.60;81.00;;;;;;4999674;28;20301;-58
2024/01/01 04:22:20;;;;;;;1.63;1.52;;;20.60;81.20;;;;;;5000449;28;21126;-60
2024/01/01 04:24:50;;;;;;;1.58;1.45;;;20.60;80.90;;;;;;5004430;28;20539;-56
2024/01/01 04:27:18;;;;;;;2.40;1.70;;;20.60;81.00;;;;;;5005114;28;20195;-54
2024/01/01 04:29:45;;;;;;;2.35;1.63;;;20.60;80.90;;;;;;5003301;28;20207;-56
2024/01/01 04:32:13;;;;;;;1.95;1.65;;;20.60;81.20;;;;;;5005055;28;20225;-59
2024/01/01 04:34:41;;;;;;;1.83;1.50;;;20.60;81.10;;;;;;5001802;28;20295;-58
2024/01/01 04:37:10;;;;;;;4.05;1.95;;;20.60;81.20;;;;;;5001952;28;20466;-57
2024/01/01 04:39:39;;;;;;;2.15;1.70;;;20.50;80.90;;;;;;4996188;28;20207;-57
2024/01/01 04:42:07;;;;;;;1.67;1.45;;;20.60;80.90;;;;;;5002149;28;20203;-57
2024/01/01 04:44:34;;;;;;;2.38;2.17;;;20.50;80.90;;;;;;4999018;28;20253;-58
2024/01/01 04:47:02;;;;;;;2.70;2.03;;;20.60;81.00;;;;;;5005669;28;20208;-56
2024/01/01 04:49:33;;;;;;;2.30;2.00;;;20.60;80.90;;;;;;5003009;28;20202;-57
2024/01/01 04:52:05;;;;;;;1.70;1.38;;;20.50;81.00;;;;;;5003097;28;20220;-53
2024/01/01 04:54:34;;;;;;;1.80;1.70;;;20.50;81.00;;;;;;5004265;28;20697;-57
2024/01/01 04:57:01;;;;;;;2.65;1.90;;;20.50;80.90;;;;;;5004706;28;20199;-56
2024/01/01 04:59:31;;;;;;;1.50;1.33;;;20.50;81.00;;;;;;4999721;28;20203;-52
2024/01/01 05:01:57;;;;;;;1.85;1.63;;;20.50;80.90;;;;;;5005389;28;20469;-54
2024/01/01 05:04:24;;;;;;;2.25;2.05;;;20.50;81.00;;;;;;5001425;28;20219;-55
2024/01/01 05:06:54;;;;;;;1.60;1.50;;;20.50;80.90;;;;;;5006064;28;20199;-53
2024/01/01 05:09:23;;;;;;;1.40;1.30;;;20.50;81.00;;;;;;5006855;28;20188;-52
2024/01/01 05:11:50;;;;;;;1.85;1.45;;;20.50;80.90;;;;;;5005166;28;20579;-58
2024/01/01 05:14:21;;;;;;;1.65;1.55;;;20.50;80.90;;;;;;5005143;28;20195;-56
2024/01/01 05:16:55;;;;;;;2.10;1.50;;;20.50;80.90;;;;;;5003438;28;20563;-60
2024/01/01 05:19:25;;;;;;;2.58;2.08;;;20.50;81.00;;;;;;5003115;28;20200;-52
2024/01/01 05:21:55;;;;;;;1.83;1.42;;;20.50;80.90;;;;;;5001283;28;20280;-57
2024/01/01 05:24:25;;;;;;;2.90;1.92;;;20.50;81.30;;;;;;5010519;28;20357;-52
2024/01/01 05:26:51;;;;;;;2.05;1.80;;;20.50;81.20;;;;;;4999674;28;20195;-59
2024/01/01 05:29:20;;;;;;;5.00;1.70;;;20.50;81.00;;;;;;4999083;28;20199;-58
2024/01/01 05:31:47;;;;;;;1.92;1.70;;;20.50;81.00;;;;;;4998690;28;20636;-56
2024/01/01 05:34:16;;;;;;;1.98;1.70;;;20.50;81.00;;;;;;4999274;28;20284;-59
2024/01/01 05:36:43;;;;;;;2.20;1.70;;;20.50;81.00;;;;;;5002430;28;20563;-59
2024/01/01 05:39:09;;;;;;;1.88;1.42;;;20.40;80.90;;;;;;5001067;28;20203;-56
2024/01/01 05:41:41;;;;;;;1.65;1.30;;;20.40;81.00;;;;;;4998199;28;20315;-55
2024/01/01 05:44:08;;;;;;;2.03;1.58;;;20.50;81.10;;;;;;4996238;28;20208;-59
2024/01/01 05:46:36;;;;;;;2.20;2.00;;;20.50;81.10;;;;;;4998462;28;20203;-57
2024/01/01 05:49:03;;;;;;;1.90;1.65;;;20.50;80.90;;;;;;5000384;28;20203;-58
2024/01/01 05:51:32;;;;;;;1.48;1.30;;;20.40;80.80;;;;;;4995818;28;20200;-60
2024/01/01 05:54:02;;;;;;;1.75;1.65;;;20.40;81.00;;;;;;4998592;28;20227;-57
2024/01/01 05:56:36;;;;;;;2.22;2.00;;;20.40;81.00;;;;;;5003830;28;20206;-59
2024/01/01 05:59:04;;;;;;;2.08;1.88;;;20.40;81.00;;;;;;4997363;28;20767;-58
2024/01/01 06:01:40;;;;;;;2.38;1.60;;;20.40;81.00;;;;;;4998769;28;20195;-56
2024/01/01 06:04:08;;;;;;;2.13;1.80;;;20.40;81.00;;;;;;4996458;28;20196;-57
2024/01/01 06:06:36;;;;;;;2.25;1.65;;;20.40;81.00;;;;;;5001234;28;20195;-58
2024/01/01 06:09:03;;;;;;;1.52;1.38;;;20.40;81.20;;;;;;4993489;28;20203;-59
2024/01/01 06:11:33;;;;;;;2.40;1.70;;;20.40;80.90;;;;;;5002418;28;20300;-55
2024/01/01 06:14:02;;;;;;;2.22;1.52;;;20.40;81.10;;;;;;4994316;28;20326;-59
2024/01/01 06:16:32;;;;;;;1.98;1.75;;;20.40;81.00;;;;;;4994973;28;20211;-56
2024/01/01 06:19:02;;;;;;;1.70;1.50;;;20.40;80.90;;;;;;4997078;28;20191;-56
2024/01/01 06:21:48;;;;;;;1.80;1.50;;;20.40;81.00;;;;;;4996319;28;20746;-59
2024/01/01 06:24:17;;;;;;;1.85;1.52;;;20.40;81.20;;;;;;5000477;28;20203;-57
2024/01/01 06:26:44;;;;;;;1.70;1.50;;;20.40;81.00;;;;;;4995090;28;20509;-59
2024/01/01 06:29:13;;;;;;;2.00;1.80;;;20.40;81.10;;;;;;4994188;28;20195;-57
2024/01/01 06:31:45;;;;;;;1.95;1.33;;;20.40;81.20;;;;;;4997948;28;20203;-55
2024/01/01 06:34:13;;;;;;;1.52;1.35;;;20.40;81.20;;;;;;5000935;28;20230;-56
2024/01/01 06:36:50;;;;;;;1.55;1.35;;;20.40;81.00;;;;;;4999048;28;20241;-57
2024/01/01 06:39:16;;;;;;;1.70;1.50;;;20.40;81.00;;;;;;4998873;28;20207;-55
2024/01/01 06:41:46;;;;;;;2.03;1.75;;;20.40;81.30;;;;;;4988681;28;20203;-58
2024/01/01 06:44:17;;;;;;;1.67;1.42;;;20.40;81.20;;;;;;4969102;28;20680;-55
2024/01/01 06:46:47;;;;;;;1.50;1.40;;;20.30;80.90;;;;;;4980960;28;20218;-59
2024/01/01 06:49:14;;;;;;;1.52;1.42;;;20.40;81.20;;;;;;4987001;28;20199;-58
2024/01/01 06:51:55;;;;;;;1.38;1.27;;;20.30;80.90;;;;;;4994568;28;20703;-58
2024/01/01 06:54:25;;;;;;;1.70;1.42;;;20.30;81.20;;;;;;4987787;28;20543;-57
2024/01/01 06:56:56;;;;;;;1.30;1.15;;;20.30;80.90;;;;;;4982348;28;20559;-59
2024/01/01 06:59:29;;;;;;;2.38;1.73;;;20.30;80.90;;;;;;4969222;28;20621;-58
2024/01/01 07:02:07;;;;;;;1.90;1.70;;;20.30;81.20;;;;;;4965973;28;20207;-58
2024/01/01 07:04:34;;;;;;;1.95;1.50;;;20.30;81.20;;;;;;4987396;28;20198;-58
2024/01/01 07:07:03;;;;;;;2.17;1.98;;;20.30;81.00;;;;;;4990254;28;20203;-56
2024/01/01 07:09:29;;;;;;;1.90;1.70;;;20.30;81.00;;;;;;4991270;28;20195;-57
2024/01/01 07:12:18;;;;;;;1.75;1.35;;;20.30;81.00;;;;;;4987614;28;20199;-55
2024/01/01 07:14:51;;;;;;;2.00;1.80;;;20.30;81.10;;;;;;4975120;28;20196;-59
2024/01/01 07:17:25;;;;;;;2.00;1.65;;;20.30;81.00;;;;;;4971747;28;20475;-59
2024/01/01 07:19:54;;;;;;;1.63;1.53;;;20.30;81.30;;;;;;4986541;28;20200;-59
2024/01/01 07:22:20;;;;;;;2.28;1.60;;;20.30;81.20;;;;;;5004361;28;20850;-59
2024/01/01 07:24:48;;;;;;;1.90;1.70;;;20.20;81.30;;;;;;4998618;28;20199;-59
2024/01/01 07:27:15;;;;;;;1.50;1.40;;;20.30;81.20;;;;;;5003847;28;20556;-57
2024/01/01 07:29:42;;;;;;;1.70;1.50;;;20.20;81.00;;;;;;5006396;28;20217;-59
2024/01/01 07:32:10;;;;;;;2.42;2.22;;;20.20;81.00;;;;;;5006295;28;20210;-56
2024/01/01 07:34:38;;;;;;;1.77;1.60;;;20.20;81.00;;;;;;5005880;28;20187;-55
2024/01/01 07:37:10;;;;;;;1.98;1.77;;;20.20;81.00;;;;;;5004909;28;20204;-57
2024/01/01 07:39:37;;;;;;;1.60;1.42;;;20.30;81.20;;;;;;5007702;28;20187;-58
2024/01/01 07:42:04;;;;;;;2.17;1.85;;;20.30;81.20;;;;;;5003699;28;20274;-56
2024/01/01 07:44:31;;;;;;;1.90;1.70;;;20.30;81.40;;;;;;5001604;28;20561;-57
2024/01/01 07:47:04;;;;;;;1.95;1.63;;;20.30;81.50;;;;;;5002254;28;20199;-56
2024/01/01 07:49:30;;;;;;;1.75;1.40;;;20.30;81.90;;;;;;5003780;28;20203;-57
2024/01/01 07:51:58;;;;;;;2.15;1.70;;;20.30;82.00;;;;;;5001370;28;20196;-55
2024/01/01 07:54:29;;;;;;;1.70;1.60;;;20.40;82.10;;;;;;4980347;28;20223;-56
2024/01/01 07:56:56;;;;;;;3.20;1.58;;;20.40;82.40;;;;;;4992766;28;20684;-58
2024/01/01 07:59:24;;;;;;;1.40;1.25;;;20.40;82.40;;;;;;4989245;28;20474;-53
2024/01/01 08:01:53;;;;;;;3.25;1.42;;;20.40;81.80;;;;;;4990473;28;20195;-61
2024/01/01 08:04:20;;;;;;;3.75;1.80;;;20.50;82.40;;;;;;4987895;28;20966;-57
2024/01/01 08:06:51;;;;;;;2.42;1.35;;;20.50;82.60;;;;;;4988064;28;20218;-58
2024/01/01 08:09:23;;;;;;;1.40;1.30;;;20.50;82.90;;;;;;4988613;28;20784;-59
2024/01/01 08:11:50;;;;;;;2.47;1.20;;;20.60;83.20;;;;;;4988320;28;20194;-58
2024/01/01 08:14:17;;;;;;;2.58;1.70;;;20.60;82.90;;;;;;4985656;28;20869;-55
2024/01/01 08:16:47;;;;;;;2.00;1.80;;;20.60;82.90;;;;;;4992265;28;20319;-56
2024/01/01 08:19:13;;;;;;;3.30;1.73;;;20.70;82.90;;;;;;4987762;28;20195;-56
2024/01/01 08:21:44;;;;;;;1.92;1.45;;;20.60;82.70;;;;;;4990064;28;20199;-56
2024/01/01 08:24:10;;;;;;;1.65;1.45;;;20.60;82.90;;;;;;4992978;28;20211;-56
2024/01/01 08:26:44;;;;;;;4.03;1.42;;;20.70;81.90;;;;;;4989673;28;20211;-55
2024/01/01 08:29:15;;;;;;;2.03;1.52;;;20.60;81.40;;;;;;4991186;28;20729;-54
2024/01/01 08:31:42;;;;;;;2.13;1.92;;;20.60;81.40;;;;;;4987491;28;20195;-57
2024/01/01 08:34:09;;;;;;;2.00;1.73;;;20.60;81.30;;;;;;4985059;28;20219;-57
2024/01/01 08:36:37;;;;;;;2.30;1.90;;;20.60;81.10;;;;;;4989738;28;22696;-54
2024/01/01 08:39:05;;;;;;;2.40;2.20;;;20.70;81.40;;;;;;4988749;28;20191;-56
2024/01/01 08:41:31;;;;;;;2.05;1.55;;;20.60;81.50;;;;;;4989517;28;20195;-56
2024/01/01 08:44:09;;;;;;;2.60;1.50;;;20.70;81.50;;;;;;4988772;28;20800;-56
2024/01/01 08:46:37;;;;;;;4.15;1.63;;;20.70;81.70;;;;;;4995225;28;20218;-55
2024/01/01 08:49:06;;;;;;;2.08;1.40;;;20.70;81.60;;;;;;4993717;28;22350;-57
2024/01/01 08:51:34;;;;;;;1.80;1.20;;;20.70;81.50;;;;;;4992542;28;20195;-54
2024/01/01 08:54:19;;;;;;;;;;;;;;;;;;;;;
2024/01/01 08:56:46;;;;;;;1.45;1.25;;;20.70;81.70;;;;;;4992234;28;20453;-57
2024/01/01 08:59:15;;;;;;;2.75;1.63;;;20.80;81.80;;;;;;4990022;28;20239;-58
2024/01/01 09:01:44;;;;;;;1.53;1.43;;;20.80;81.80;;;;;;4992843;28;20206;-56
2024/01/01 09:04:14;;;;;;;2.47;1.80;;;20.80;81.80;;;;;;4989990;28;20858;-54
2024/01/01 09:06:43;;;;;;;1.80;1.30;;;20.80;81.70;;;;;;4990548;28;20301;-55
2024/01/01 09:09:10;;;;;;;1.25;1.15;;;20.80;81.80;;;;;;4993526;28;20194;-57
2024/01/01 09:11:38;;;;;;;1.95;1.80;;;20.90;81.80;;;;;;4992547;28;20203;-58
2024/01/01 09:14:05;;;;;;;1.63;1.30;;;20.90;81.80;;;;;;4985563;28;20366;-57
2024/01/01 09:16:37;;;;;;;1.92;1.52;;;20.90;81.80;;;;;;4991215;28;20202;-55
2024/01/01 09:19:05;;;;;;;2.22;1.33;;;20.90;81.80;;;;;;4994683;28;20192;-58
2024/01/01 09:21:34;;;;;;;1.58;1.48;;;20.90;81.70;;;;;;4993178;28;20623;-58
2024/01/01 09:24:03;;;;;;;2.00;1.30;;;20.90;81.70;;;;;;4994072;28;20602;-55
2024/01/01 09:26:30;;;;;;;2.65;1.30;;;20.90;81.60;;;;;;4992594;28;20204;-57
2024/01/01 09:28:57;;;;;;;5.45;1.10;;;20.90;81.60;;;;;;4985740;28;20195;-57
2024/01/01 09:31:26;;;;;;;3.10;1.70;;;20.90;81.60;;;;;;4992944;28;20206;-56
2024/01/01 09:33:55;;;;;;;1.77;1.30;;;21.00;81.70;;;;;;4994378;28;21417;-56
2024/01/01 09:36:26;;;;;;;1.77;1.33;;;21.00;81.60;;;;;;4991901;28;20460;-58
2024/01/01 09:38:53;;;;;;;2.50;1.20;;;21.00;81.70;;;;;;4993584;28;20465;-53
2024/01/01 09:41:24;;;;;;;2.03;1.23;;;21.00;81.60;;;;;;4989301;28;21191;-57
2024/01/01 09:43:51;;;;;;;3.78;1.45;;;21.00;81.70;;;;;;4989529;28;20475;-54
2024/01/01 09:46:18;;;;;;;4.23;1.80;;;21.00;81.60;;;;;;4992220;28;20215;-56
2024/01/01 09:48:46;;;;;;;2.17;1.50;;;21.00;81.60;;;;;;4993272;28;20463;-56
2024/01/01 09:51:18;;;;;;;2.70;1.87;;;21.00;81.60;;;;;;4987091;28;20915;-55
2024/01/01 09:53:54;;;;;;;2.60;1.25;;;21.10;81.70;;;;;;4994876;28;20728;-55
2024/01/01 09:56:21;;;;;;;1.30;1.20;;;21.10;82.60;;;;;;4987373;28;20243;-58
2024/01/01 09:58:51;;;;;;;4.70;1.50;;;21.10;81.70;;;;;;4992063;28;20461;-56
2024/01/01 10:01:20;;;;;;;1.97;1.00;;;21.10;81.60;;;;;;4990229;28;20461;-54
2024/01/01 10:04:01;;;;;;;2.00;1.38;;;21.10;81.60;;;;;;4993549;28;20466;-55
2024/01/01 10:06:30;;;;;;;2.28;1.35;;;21.10;81.70;;;;;;4987080;28;20751;-57
2024/01/01 10:09:08;;;;;;;3.50;1.40;;;21.10;81.50;;;;;;4997134;28;20208;-53
2024/01/01 10:11:38;;;;;;;2.20;1.20;;;21.10;81.40;;;;;;4991061;28;20198;-55
2024/01/01 10:14:08;;;;;;;2.20;1.83;;;21.10;81.40;;;;;;4991795;28;20881;-56
2024/01/01 10:16:39;;;;;;;6.53;1.67;;;21.10;81.40;;;;;;4989917;28;20457;-55
2024/01/01 10:19:08;;;;;;;1.65;1.45;;;21.10;81.30;;;;;;4991813;28;20468;-55
2024/01/01 10:21:41;;;;;;;2.23;1.40;;;21.20;81.40;;;;;;4991369;28;20738;-57
2024/01/01 10:24:22;;;;;;;1.30;1.00;;;21.20;81.50;;;;;;4985003;28;20861;-58
2024/01/01 10:26:52;;;;;;;3.30;1.70;;;21.20;81.50;;;;;;4993164;28;20465;-58
2024/01/01 10:29:22;;;;;;;2.03;1.67;;;21.20;81.40;;;;;;4987640;28;20458;-56
2024/01/01 10:31:52;;;;;;;1.73;1.30;;;21.20;81.40;;;;;;4991008;28;20542;-57
2024/01/01 10:34:21;;;;;;;2.45;1.27;;;21.20;81.40;;;;;;4991476;28;20487;-58
2024/01/01 10:36:54;;;;;;;3.50;1.43;;;21.20;81.40;;;;;;4990799;28;20207;-56
2024/01/01 10:39:26;;;;;;;2.13;1.10;;;21.20;81.40;;;;;;4993641;28;20472;-55
2024/01/01 10:41:53;;;;;;;1.58;1.23;;;21.20;81.40;;;;;;4988570;28;20457;-58
2024/01/01 10:44:19;;;;;;;1.83;1.30;;;21.20;81.50;;;;;;4981237;28;20311;-62
2024/01/01 10:46:52;;;;;;;3.60;1.50;;;21.20;81.50;;;;;;4990435;28;20755;-56
2024/01/01 10:49:24;;;;;;;1.53;1.37;;;21.20;81.60;;;;;;4990066;28;20946;-59
2024/01/01 10:52:07;;;;;;;1.70;1.47;;;21.30;81.90;;;;;;4992061;28;21056;-60
2024/01/01 10:54:54;;;;;;;3.08;1.48;;;21.30;82.10;;;;;;4990759;28;20484;-61
2024/01/01 10:57:38;;;;;;;1.60;1.10;;;21.30;83.00;;;;;;4991711;28;20201;-63
2024/01/01 11:00:10;;;;;;;2.00;1.30;;;21.30;82.30;;;;;;4991499;28;21323;-57
2024/01/01 11:02:42;;;;;;;1.30;1.10;;;21.30;82.80;;;;;;4990281;28;20459;-59
2024/01/01 11:05:12;;;;;;;1.70;1.23;;;21.40;82.50;;;;;;4987985;28;20199;-64
2024/01/01 11:07:59;;;;;;;2.03;1.60;;;21.40;82.50;;;;;;4995621;28;20454;-57
2024/01/01 11:10:36;;;;;;;1.23;1.13;;;21.40;83.40;;;;;;4991608;28;20858;-64
2024/01/01 11:13:03;;;;;;;2.70;1.53;;;21.50;82.70;;;;;;4990258;28;20636;-57
2024/01/01 11:15:43;;;;;;;2.00;1.43;;;21.50;82.60;;;;;;4992241;28;20485;-58
2024/01/01 11:18:19;;;;;;;1.77;1.30;;;21.50;82.60;;;;;;4989553;28;20943;-58
2024/01/01 11:20:50;;;;;;;2.00;1.40;;;21.50;82.70;;;;;;4989651;28;20868;-62
2024/01/01 11:23:55;;;;;;;1.50;1.30;;;21.60;82.70;;;;;;4989518;28;21051;-55
2024/01/01 11:26:32;;;;;;;1.53;1.20;;;21.60;82.70;;;;;;4991375;28;20469;-57
2024/01/01 11:29:04;;;;;;;1.83;1.33;;;21.60;82.60;;;;;;4987435;28;25220;-59
2024/01/01 11:31:35;;;;;;;1.50;1.30;;;21.60;82.50;;;;;;4990867;28;20547;-58
2024/01/01 11:34:06;;;;;;;1.47;1.30;;;21.70;82.50;;;;;;4985783;28;20481;-58
2024/01/01 11:36:40;;;;;;;1.27;1.17;;;21.70;82.50;;;;;;4990359;28;20471;-57
2024/01/01 11:39:07;;;;;;;1.80;1.10;;;21.70;82.50;;;;;;4981344;28;20507;-58
2024/01/01 11:41:37;;;;;;;1.73;1.37;;;21.70;82.40;;;;;;4993190;28;20453;-57
2024/01/01 11:44:10;;;;;;;2.50;1.30;;;21.70;82.50;;;;;;4992267;28;21103;-60
2024/01/01 11:46:40;;;;;;;1.60;1.10;;;21.70;82.50;;;;;;4990128;28;20475;-61
2024/01/01 11:49:08;;;;;;;3.47;1.30;;;21.80;82.50;;;;;;4988656;28;20456;-60
2024/01/01 11:51:48;;;;;;;1.63;1.00;;;21.80;82.60;;;;;;4990671;28;20466;-60
2024/01/01 11:54:15;;;;;;;1.40;1.20;;;21.80;82.50;;;;;;4992896;28;20481;-58
2024/01/01 11:56:45;;;;;;;1.90;1.30;;;21.80;82.60;;;;;;4995764;28;20885;-58
2024/01/01 11:59:12;;;;;;;1.43;1.27;;;21.80;82.50;;;;;;4989053;28;21048;-60
2024/01/01 12:01:47;;;;;;;1.50;0.90;;;21.90;82.60;;;;;;4992214;28;20467;-58
2024/01/01 12:04:32;;;;;;;2.33;1.30;;;21.90;82.70;;;;;;4990455;28;20460;-60
2024/01/01 12:07:06;;;;;;;1.47;1.00;;;22.00;82.60;;;;;;4991431;28;20924;-57
2024/01/01 12:09:33;;;;;;;1.53;1.13;;;22.00;82.60;;;;;;4988529;28;20891;-61
2024/01/01 12:12:06;;;;;;;1.50;0.90;;;22.00;83.40;;;;;;4985796;28;20466;-66
2024/01/01 12:14:33;;;;;;;2.13;1.00;;;22.00;82.70;;;;;;4990144;28;20522;-60
2024/01/01 12:16:59;;;;;;;1.10;0.93;;;22.10;82.80;;;;;;4990045;28;20463;-62
2024/01/01 12:19:31;;;;;;;3.10;1.43;;;22.10;82.60;;;;;;4994113;28;21057;-65
2024/01/01 12:21:58;;;;;;;1.60;1.30;;;22.10;82.60;;;;;;4993948;28;20453;-57
2024/01/01 12:24:29;;;;;;;2.90;1.33;;;22.10;82.50;;;;;;4993453;28;20470;-60
2024/01/01 12:27:03;;;;;;;2.47;1.00;;;22.10;82.60;;;;;;4990514;28;21143;-61
2024/01/01 12:29:32;;;;;;;1.30;1.17;;;22.20;82.80;;;;;;4993560;28;21099;-64
2024/01/01 12:32:03;;;;;;;1.47;1.37;;;22.10;82.60;;;;;;4989704;28;20457;-62
2024/01/01 12:34:30;;;;;;;1.40;1.20;;;22.20;82.60;;;;;;4991823;28;20924;-58
2024/01/01 12:36:58;;;;;;;1.70;1.00;;;22.20;82.60;;;;;;4996022;28;20461;-59
2024/01/01 12:39:26;;;;;;;1.47;1.10;;;22.20;82.50;;;;;;4989748;28;20833;-60
2024/01/01 12:41:56;;;;;;;1.20;1.10;;;22.20;82.60;;;;;;4992762;28;20465;-60
2024/01/01 12:44:25;;;;;;;1.40;0.90;;;22.20;82.40;;;;;;4994223;28;20508;-66
2024/01/01 12:46:54;;;;;;;3.43;1.40;;;22.20;82.60;;;;;;4987412;28;21041;-62
2024/01/01 12:49:20;;;;;;;1.50;1.13;;;22.30;82.60;;;;;;4993528;28;20468;-63
2024/01/01 12:51:48;;;;;;;1.17;1.03;;;22.30;82.50;;;;;;4992624;28;20449;-64
2024/01/01 12:54:17;;;;;;;2.00;1.10;;;22.30;82.40;;;;;;4991480;28;20598;-65
2024/01/01 12:56:44;;;;;;;1.33;1.00;;;22.30;82.40;;;;;;4992674;28;20457;-64
2024/01/01 12:59:13;;;;;;;1.10;0.93;;;22.30;82.10;;;;;;4990575;28;20458;-64
2024/01/01 13:01:43;;;;;;;1.10;0.90;;;22.40;82.30;;;;;;4990777;28;20465;-66